Pelotas, Brazil
Current Conditions -  °F | °C
As of 2:00 AM on Wednesday 22 Oct 2014 (Local Time) from SBPK Reporting Station
Clear Clear  
Wind Chill: 55°   Ceiling: Unl
Heat Index: 55°   Visibility: 6mi
Dew Point: 54°   Wind: 3mph
Humidity: 94%   Direction: 40°NE
Pressure: 30.15"   Gusts: NA
Location:  31.76°S, 52.34°W
Report Text: SBPK 220400Z 04003KT CAVOK 13/12 Q1021
Loading
Personal Weather Stations






























Interactive Weather Map
Tropical Storm Tracking
New forecast layout! Learn more

10-Day Weather Forecast

Advertisements
Track Severe Weather on mobile